AFR777 LFBO-LFPG
Flight info
| Callsign | AFR777 |
|---|---|
| Flight time | N/A |
| Altitude | 34000 |
| Route | FISTO DCT POI/N0462F300 DCT PEPAX UT182 KEPER |
| Aircraft | B77W/H-SDE1E2E3FGHIJ2J3J4J5M1RWXY/LB1D1 |
Departure
| Time | 2026-05-01 15:28 |
|---|---|
| Airport | Toulouse-Blagnac Airport (LFBO) |
Arrival
| Time | N/A |
|---|---|
| Airport | Charles de Gaulle International Airport (LFPG) |
| Time | Latitude | Longitude | Altitude | Speed | Heading |
|---|---|---|---|---|---|
| 2026-05-01 15:06 | 43.61751 | 1.36467 | 499 ft | 0 kts | 272° |
| 2026-05-01 15:16 | 43.61749 | 1.36514 | 499 ft | 4 kts | 273° |
| 2026-05-01 15:17 | 43.61745 | 1.36572 | 499 ft | 4 kts | 297° |
| 2026-05-01 15:18 | 43.61707 | 1.36609 | 500 ft | 0 kts | 341° |
| 2026-05-01 15:23 | 43.61709 | 1.36608 | 499 ft | 2 kts | 341° |
| 2026-05-01 15:23 | 43.61804 | 1.36587 | 495 ft | 19 kts | 356° |
| 2026-05-01 15:24 | 43.61948 | 1.36594 | 499 ft | 19 kts | 2° |
| 2026-05-01 15:24 | 43.62075 | 1.36595 | 499 ft | 19 kts | 358° |
| 2026-05-01 15:24 | 43.62203 | 1.36567 | 487 ft | 19 kts | 334° |
| 2026-05-01 15:24 | 43.62310 | 1.36467 | 487 ft | 19 kts | 322° |
| 2026-05-01 15:25 | 43.62418 | 1.36354 | 499 ft | 23 kts | 322° |
| 2026-05-01 15:25 | 43.62545 | 1.36221 | 492 ft | 23 kts | 323° |
| 2026-05-01 15:25 | 43.62683 | 1.36079 | 497 ft | 32 kts | 323° |
| 2026-05-01 15:25 | 43.62866 | 1.35891 | 487 ft | 33 kts | 322° |
| 2026-05-01 15:26 | 43.63047 | 1.35700 | 499 ft | 32 kts | 323° |
| 2026-05-01 15:26 | 43.63223 | 1.35517 | 490 ft | 29 kts | 322° |
| 2026-05-01 15:26 | 43.63385 | 1.35348 | 489 ft | 29 kts | 323° |
| 2026-05-01 15:26 | 43.63471 | 1.35264 | 496 ft | 2 kts | 338° |
| 2026-05-01 15:27 | 43.63504 | 1.35325 | 493 ft | 19 kts | 58° |
| 2026-05-01 15:27 | 43.63500 | 1.35521 | 495 ft | 31 kts | 131° |
| 2026-05-01 15:27 | 43.63098 | 1.35968 | 499 ft | 126 kts | 143° |
| 2026-05-01 15:28 | 43.61196 | 1.37875 | 2385 ft | 164 kts | 142° |
| 2026-05-01 15:28 | 43.60274 | 1.38855 | 3778 ft | 168 kts | 141° |
| 2026-05-01 15:28 | 43.59347 | 1.39882 | 4999 ft | 174 kts | 141° |
| 2026-05-01 15:29 | 43.57341 | 1.42071 | 6894 ft | 192 kts | 143° |
| 2026-05-01 15:29 | 43.56119 | 1.42918 | 7720 ft | 204 kts | 164° |
| 2026-05-01 15:29 | 43.53114 | 1.42398 | 9169 ft | 241 kts | 207° |
| 2026-05-01 15:30 | 43.51328 | 1.39213 | 10218 ft | 283 kts | 252° |
| 2026-05-01 15:31 | 43.56038 | 1.30849 | 11367 ft | 362 kts | 346° |
| 2026-05-01 15:31 | 43.61198 | 1.29700 | 13185 ft | 383 kts | 352° |
| 2026-05-01 15:32 | 43.66366 | 1.28786 | 15366 ft | 392 kts | 352° |
| 2026-05-01 15:32 | 43.71853 | 1.27686 | 17350 ft | 405 kts | 350° |
| 2026-05-01 15:33 | 43.80381 | 1.25782 | 20168 ft | 422 kts | 349° |